createdAt,value
2018-05-16T00:00:54.749Z,36.37
2018-05-16T00:03:23.012Z,39.10
2018-05-16T00:05:51.292Z,35.90
2018-05-16T00:08:19.561Z,33.33
2018-05-16T00:10:47.845Z,36.33
2018-05-16T00:13:16.113Z,36.90
2018-05-16T00:15:44.425Z,40.73
2018-05-16T00:18:11.929Z,35.30
2018-05-16T00:20:39.433Z,36.90
2018-05-16T00:23:06.957Z,38.30
2018-05-16T00:25:35.229Z,36.60
2018-05-16T00:28:03.513Z,41.27
2018-05-16T00:30:31.781Z,41.10
2018-05-16T00:33:00.065Z,36.07
2018-05-16T00:35:28.338Z,39.20
2018-05-16T00:37:56.683Z,36.33
2018-05-16T00:40:24.181Z,38.40
2018-05-16T00:42:52.461Z,38.60
2018-05-16T00:45:20.729Z,44.07
2018-05-16T00:47:49.007Z,39.80
2018-05-16T00:50:17.269Z,39.10
2018-05-16T00:52:45.544Z,41.10
2018-05-16T00:55:13.817Z,38.87
2018-05-16T00:57:41.334Z,39.87
2018-05-16T01:00:08.840Z,45.17
2018-05-16T01:02:37.865Z,41.57
2018-05-16T01:05:05.360Z,41.87
2018-05-16T01:07:32.867Z,42.73
2018-05-16T01:10:01.128Z,39.43
2018-05-16T01:12:29.408Z,45.03
2018-05-16T01:14:57.708Z,40.60
2018-05-16T01:17:25.980Z,38.27
2018-05-16T01:19:54.253Z,36.77
2018-05-16T01:22:22.537Z,41.43
2018-05-16T01:24:50.033Z,38.73
2018-05-16T01:27:17.549Z,38.53
2018-05-16T01:29:45.812Z,36.50
2018-05-16T01:32:14.089Z,46.03
2018-05-16T01:34:42.381Z,41.83
2018-05-16T01:37:09.945Z,40.97
2018-05-16T01:39:37.455Z,38.50
2018-05-16T01:42:05.057Z,38.83
2018-05-16T01:44:32.561Z,39.03
2018-05-16T01:47:00.081Z,38.20
2018-05-16T01:49:27.580Z,39.37
2018-05-16T01:51:55.099Z,36.37
2018-05-16T01:54:22.657Z,41.70
2018-05-16T01:56:50.169Z,42.90
2018-05-16T01:59:17.764Z,41.57
2018-05-16T02:01:46.043Z,43.23
2018-05-16T02:04:13.544Z,39.03
2018-05-16T02:06:41.165Z,42.53
2018-05-16T02:09:08.667Z,39.00
2018-05-16T02:11:36.164Z,37.73
2018-05-16T02:14:04.444Z,40.87
2018-05-16T02:16:32.704Z,42.73
2018-05-16T02:19:01.008Z,43.23
2018-05-16T02:21:28.520Z,41.70
2018-05-16T02:23:56.113Z,37.47
2018-05-16T02:26:23.554Z,37.90
2018-05-16T02:28:51.837Z,38.83
2018-05-16T02:31:20.140Z,41.40
2018-05-16T02:33:47.649Z,37.03
2018-05-16T02:36:15.157Z,39.50
2018-05-16T02:38:42.669Z,37.30
2018-05-16T02:41:10.268Z,35.13
2018-05-16T02:43:37.786Z,35.17
2018-05-16T02:46:06.056Z,35.07
2018-05-16T02:48:33.578Z,37.40
2018-05-16T02:51:01.080Z,34.70
2018-05-16T02:53:28.600Z,36.10
2018-05-16T02:55:56.096Z,41.00
2018-05-16T02:58:25.123Z,45.20
2018-05-16T03:00:53.400Z,35.77
2018-05-16T03:03:20.924Z,43.93
2018-05-16T03:05:48.421Z,37.87
2018-05-16T03:08:15.937Z,35.97
2018-05-16T03:10:44.208Z,52.60
2018-05-16T03:13:11.817Z,38.73
2018-05-16T03:15:39.374Z,45.57
2018-05-16T03:18:06.896Z,38.13
2018-05-16T03:20:34.392Z,35.37
2018-05-16T03:23:01.900Z,38.87
2018-05-16T03:25:29.397Z,42.63
2018-05-16T03:27:57.681Z,42.03
2018-05-16T03:30:25.182Z,36.90
2018-05-16T03:32:52.696Z,40.77
2018-05-16T03:35:20.197Z,44.40
2018-05-16T03:37:47.715Z,42.70
2018-05-16T03:40:15.215Z,37.70
2018-05-16T03:42:42.728Z,36.30
2018-05-16T03:45:10.320Z,37.93
2018-05-16T03:47:37.841Z,40.43
2018-05-16T03:50:06.105Z,37.10
2018-05-16T03:52:34.383Z,41.00
2018-05-16T03:55:02.644Z,40.13
2018-05-16T03:57:42.013Z,37.17
2018-05-16T04:00:21.256Z,34.00
2018-05-16T04:03:00.542Z,36.33
2018-05-16T04:05:28.049Z,36.10
2018-05-16T04:07:55.561Z,36.60
2018-05-16T04:10:23.156Z,33.87
2018-05-16T04:12:50.666Z,32.23
2018-05-16T04:15:18.184Z,33.03
2018-05-16T04:17:45.685Z,30.00
2018-05-16T04:20:14.808Z,38.60
2018-05-16T04:22:43.069Z,34.33
2018-05-16T04:25:10.581Z,33.20
2018-05-16T04:27:38.093Z,37.33
2018-05-16T04:30:06.392Z,32.47
2018-05-16T04:32:33.959Z,33.73
2018-05-16T04:35:01.425Z,33.00
2018-05-16T04:37:28.926Z,28.80
2018-05-16T04:39:56.432Z,26.83
2018-05-16T04:42:23.938Z,33.93
2018-05-16T04:44:51.456Z,28.87
2018-05-16T04:47:18.952Z,31.20
2018-05-16T04:49:46.464Z,31.03
2018-05-16T04:52:13.968Z,30.30
2018-05-16T04:54:41.493Z,31.20
2018-05-16T04:57:08.992Z,32.50
2018-05-16T04:59:36.568Z,33.47
2018-05-16T05:02:04.025Z,32.57
2018-05-16T05:04:32.319Z,32.07
2018-05-16T05:06:59.880Z,27.93
2018-05-16T05:09:27.440Z,32.53
2018-05-16T05:11:54.932Z,33.07
2018-05-16T05:14:22.445Z,31.70
2018-05-16T05:16:50.708Z,28.93
2018-05-16T05:19:18.999Z,31.80
2018-05-16T05:21:47.255Z,26.50
2018-05-16T05:24:14.772Z,27.17
2018-05-16T05:26:42.273Z,29.10
2018-05-16T05:29:10.565Z,30.45
2018-05-16T05:31:38.832Z,31.80
2018-05-16T05:34:07.508Z,33.33
2018-05-16T05:36:35.328Z,29.87
2018-05-16T05:39:02.989Z,32.47
2018-05-16T05:41:30.510Z,30.83
2018-05-16T05:43:58.784Z,33.93
2018-05-16T05:46:27.040Z,30.03
2018-05-16T05:48:54.560Z,32.93
2018-05-16T05:51:22.058Z,33.30
2018-05-16T05:53:49.572Z,33.57
2018-05-16T05:56:17.069Z,30.30
2018-05-16T05:58:44.577Z,31.27
2018-05-16T06:01:12.084Z,33.03
2018-05-16T06:03:39.602Z,36.80
2018-05-16T06:06:07.111Z,31.90
2018-05-16T06:08:34.604Z,38.13
2018-05-16T06:11:02.148Z,32.47
2018-05-16T06:13:30.410Z,32.10
2018-05-16T06:15:58.697Z,32.33
2018-05-16T06:18:26.960Z,36.10
2018-05-16T06:20:55.241Z,34.60
2018-05-16T06:23:23.509Z,32.23
2018-05-16T06:25:51.789Z,31.50
2018-05-16T06:28:20.057Z,27.70
2018-05-16T06:30:47.580Z,26.73
2018-05-16T06:33:15.080Z,32.03
2018-05-16T06:35:43.356Z,35.40
2018-05-16T06:38:11.652Z,30.57
2018-05-16T06:40:39.213Z,27.57
2018-05-16T06:43:06.718Z,36.13
2018-05-16T06:45:34.247Z,33.97
2018-05-16T06:48:01.739Z,32.13
2018-05-16T06:50:29.251Z,39.53
2018-05-16T06:52:56.801Z,34.20
2018-05-16T06:55:24.320Z,34.83
2018-05-16T06:57:51.830Z,34.50
2018-05-16T07:00:19.348Z,32.43
2018-05-16T07:02:46.844Z,27.87
2018-05-16T07:05:14.369Z,28.77
2018-05-16T07:07:41.865Z,27.67
2018-05-16T07:10:09.385Z,26.33
2018-05-16T07:12:37.653Z,29.63
2018-05-16T07:15:05.944Z,24.43
2018-05-16T07:17:34.208Z,23.50
2018-05-16T07:20:01.721Z,25.93
2018-05-16T07:22:29.223Z,23.90
2018-05-16T07:24:56.745Z,20.33
2018-05-16T07:27:24.249Z,22.43
2018-05-16T07:29:52.537Z,25.17
2018-05-16T07:32:20.880Z,21.30
2018-05-16T07:34:48.341Z,19.90
2018-05-16T07:37:15.836Z,22.00
2018-05-16T07:39:43.348Z,18.23
2018-05-16T07:42:10.844Z,18.27
2018-05-16T07:44:39.128Z,18.83
2018-05-16T07:47:06.662Z,17.43
2018-05-16T07:49:34.174Z,17.77
2018-05-16T07:52:01.668Z,15.70
2018-05-16T07:54:29.189Z,15.33
2018-05-16T07:56:56.684Z,20.13
2018-05-16T07:59:24.201Z,19.00
2018-05-16T08:01:51.704Z,17.03
2018-05-16T08:04:19.220Z,15.40
2018-05-16T08:06:46.717Z,18.33
2018-05-16T08:09:14.224Z,16.13
2018-05-16T08:11:41.744Z,17.03
2018-05-16T08:14:10.008Z,17.57
2018-05-16T08:16:37.533Z,18.37
2018-05-16T08:19:05.037Z,18.13
2018-05-16T08:21:33.357Z,15.17
2018-05-16T08:24:00.860Z,16.50
2018-05-16T08:26:29.180Z,17.10
2018-05-16T08:28:56.685Z,19.90
2018-05-16T08:31:24.201Z,22.57
2018-05-16T08:33:52.040Z,16.90
2018-05-16T08:36:20.316Z,14.97
2018-05-16T08:38:48.586Z,15.63
2018-05-16T08:41:16.872Z,19.00
2018-05-16T08:43:45.140Z,14.40
2018-05-16T08:46:13.416Z,18.03
2018-05-16T08:48:41.681Z,19.60
2018-05-16T08:51:09.268Z,15.10
2018-05-16T08:53:36.771Z,15.80
2018-05-16T08:56:04.384Z,15.13
2018-05-16T08:58:31.896Z,17.40
2018-05-16T09:00:59.407Z,14.40
2018-05-16T09:03:26.907Z,13.17
2018-05-16T09:05:54.429Z,16.90
2018-05-16T09:08:21.980Z,13.33
2018-05-16T09:10:49.540Z,15.10
2018-05-16T09:13:17.040Z,13.67
2018-05-16T09:15:44.552Z,15.00
2018-05-16T09:18:12.049Z,12.20
2018-05-16T09:20:39.566Z,12.50
2018-05-16T09:23:07.072Z,14.93
2018-05-16T09:25:34.588Z,14.37
2018-05-16T09:28:02.103Z,16.43
2018-05-16T09:30:30.433Z,14.03
2018-05-16T09:32:57.963Z,13.17
2018-05-16T09:35:25.476Z,12.53
2018-05-16T09:37:52.973Z,14.63
2018-05-16T09:40:21.336Z,12.20
2018-05-16T09:42:48.828Z,6.77
2018-05-16T09:45:17.105Z,8.00
2018-05-16T09:47:44.592Z,8.57
2018-05-16T09:50:12.105Z,7.60
2018-05-16T09:52:40.356Z,7.67
2018-05-16T09:55:07.865Z,6.70
2018-05-16T09:57:35.433Z,11.10
2018-05-16T10:00:03.066Z,10.80
2018-05-16T10:02:30.636Z,6.60
2018-05-16T10:04:58.160Z,6.40
2018-05-16T10:07:25.756Z,7.83
2018-05-16T10:09:53.260Z,7.30
2018-05-16T10:12:20.908Z,8.17
2018-05-16T10:14:48.464Z,7.93
2018-05-16T10:17:16.068Z,6.90
2018-05-16T10:19:44.341Z,6.57
2018-05-16T10:22:11.862Z,7.37
2018-05-16T10:24:39.359Z,6.50
2018-05-16T10:27:07.857Z,6.50
2018-05-16T10:29:36.263Z,7.23
2018-05-16T10:32:03.890Z,5.03
2018-05-16T10:34:32.267Z,6.43
2018-05-16T10:36:59.788Z,5.47
2018-05-16T10:39:27.378Z,6.53
2018-05-16T10:41:54.946Z,4.10
2018-05-16T10:44:22.483Z,4.90
2018-05-16T10:46:50.242Z,7.73
2018-05-16T10:49:17.886Z,5.00
2018-05-16T10:51:45.412Z,4.43
2018-05-16T10:54:12.904Z,5.57
2018-05-16T10:56:40.412Z,5.00
2018-05-16T10:59:08.675Z,4.67
2018-05-16T11:01:36.957Z,5.60
2018-05-16T11:04:05.221Z,5.57
2018-05-16T11:06:32.732Z,6.80
2018-05-16T11:09:00.220Z,4.90
2018-05-16T11:11:27.809Z,3.97
2018-05-16T11:13:55.240Z,4.40
2018-05-16T11:16:22.748Z,5.80
2018-05-16T11:18:50.244Z,4.53
2018-05-16T11:21:17.795Z,8.13
2018-05-16T11:23:45.279Z,6.13
2018-05-16T11:26:12.793Z,5.50
2018-05-16T11:28:40.293Z,4.17
2018-05-16T11:31:07.805Z,5.33
2018-05-16T11:33:35.312Z,5.70
2018-05-16T11:36:02.824Z,5.13
2018-05-16T11:38:30.328Z,5.53
2018-05-16T11:40:57.836Z,5.07
2018-05-16T11:43:25.329Z,7.43
2018-05-16T11:45:52.842Z,4.67
2018-05-16T11:48:20.347Z,4.50
2018-05-16T11:50:47.862Z,4.43
2018-05-16T11:53:15.365Z,4.40
2018-05-16T11:55:42.993Z,4.07
2018-05-16T11:58:10.490Z,5.20
2018-05-16T12:00:38.251Z,4.60
2018-05-16T12:03:05.772Z,4.37
2018-05-16T12:05:33.272Z,5.40
2018-05-16T12:08:01.120Z,3.93
2018-05-16T12:10:29.384Z,6.50
2018-05-16T12:13:00.412Z,6.57
2018-05-16T12:15:27.925Z,10.73
2018-05-16T12:17:56.204Z,7.37
2018-05-16T12:20:24.465Z,7.40
2018-05-16T12:22:51.982Z,6.37
2018-05-16T12:25:19.481Z,4.97
2018-05-16T12:27:46.996Z,3.70
2018-05-16T12:30:14.493Z,3.83
2018-05-16T12:32:42.008Z,3.57
2018-05-16T12:35:09.508Z,4.33
2018-05-16T12:37:37.020Z,5.17
2018-05-16T12:40:04.516Z,3.30
2018-05-16T12:42:32.025Z,4.60
2018-05-16T12:44:59.534Z,3.90
2018-05-16T12:47:27.044Z,4.33
2018-05-16T12:49:54.544Z,3.77
2018-05-16T12:52:22.052Z,4.90
2018-05-16T12:54:49.541Z,5.27
2018-05-16T12:57:17.052Z,4.40
2018-05-16T12:59:45.313Z,5.00
2018-05-16T13:02:12.840Z,5.40
2018-05-16T13:04:40.336Z,8.67
2018-05-16T13:07:08.620Z,4.63
2018-05-16T13:09:36.888Z,5.20
2018-05-16T13:12:05.164Z,5.63
2018-05-16T13:14:33.429Z,5.00
2018-05-16T13:17:00.949Z,6.67
2018-05-16T13:19:28.441Z,8.60
2018-05-16T13:21:55.958Z,8.17
2018-05-16T13:24:23.452Z,8.80
2018-05-16T13:26:51.286Z,7.83
2018-05-16T13:29:19.501Z,9.30
2018-05-16T13:31:47.041Z,10.70
2018-05-16T13:34:14.536Z,12.10
2018-05-16T13:36:42.817Z,12.20
2018-05-16T13:39:11.109Z,11.80
2018-05-16T13:41:38.625Z,12.47
2018-05-16T13:44:06.124Z,15.33
2018-05-16T13:46:33.696Z,11.30
2018-05-16T13:49:01.150Z,11.20
2018-05-16T13:51:28.972Z,13.83
2018-05-16T13:53:56.568Z,12.80
2018-05-16T13:56:24.144Z,14.10
2018-05-16T13:58:51.668Z,11.53
2018-05-16T14:01:19.932Z,10.30
2018-05-16T14:03:48.221Z,12.00
2018-05-16T14:06:15.743Z,11.83
2018-05-16T14:08:43.293Z,11.90
2018-05-16T14:11:10.788Z,11.57
2018-05-16T14:13:39.073Z,17.90
2018-05-16T14:16:07.336Z,13.50
2018-05-16T14:18:35.617Z,13.40
2018-05-16T14:21:03.880Z,13.70
2018-05-16T14:23:31.396Z,15.60
2018-05-16T14:25:58.892Z,13.57
2018-05-16T14:28:26.413Z,12.40
2018-05-16T14:30:53.911Z,12.63
2018-05-16T14:33:21.425Z,12.47
2018-05-16T14:35:48.929Z,10.80
2018-05-16T14:38:16.445Z,12.30
2018-05-16T14:40:43.949Z,12.10
2018-05-16T14:43:12.233Z,15.37
2018-05-16T14:45:40.502Z,12.93
2018-05-16T14:48:08.783Z,12.10
2018-05-16T14:50:37.448Z,12.80
2018-05-16T14:53:04.965Z,13.80
2018-05-16T14:55:32.533Z,12.00
2018-05-16T14:58:00.760Z,10.97
2018-05-16T15:00:29.025Z,12.13
2018-05-16T15:02:56.544Z,11.00
2018-05-16T15:05:24.048Z,12.87
2018-05-16T15:07:52.330Z,10.47
2018-05-16T15:10:20.602Z,11.77
2018-05-16T15:12:48.889Z,12.17
2018-05-16T15:15:17.157Z,10.07
2018-05-16T15:17:45.439Z,10.50
2018-05-16T15:20:13.696Z,12.27
2018-05-16T15:22:41.293Z,11.83
2018-05-16T15:25:08.721Z,12.77
2018-05-16T15:27:37.008Z,13.20
2018-05-16T15:30:05.312Z,9.97
2018-05-16T15:32:32.837Z,13.17
2018-05-16T15:35:01.111Z,14.53
2018-05-16T15:37:29.395Z,16.00
2018-05-16T15:39:57.652Z,11.20
2018-05-16T15:42:25.168Z,13.10
2018-05-16T15:44:52.821Z,15.43
2018-05-16T15:47:20.337Z,11.93
2018-05-16T15:49:48.612Z,12.97
2018-05-16T15:52:16.896Z,11.63
2018-05-16T15:54:45.161Z,12.23
2018-05-16T15:57:12.693Z,13.20
2018-05-16T15:59:40.233Z,13.00
2018-05-16T16:02:07.719Z,14.93
2018-05-16T16:04:35.241Z,14.77
2018-05-16T16:07:02.742Z,13.87
2018-05-16T16:09:30.355Z,15.07
2018-05-16T16:11:57.857Z,15.43
2018-05-16T16:14:25.368Z,16.03
2018-05-16T16:16:52.868Z,14.23
2018-05-16T16:19:20.388Z,15.67
2018-05-16T16:21:47.893Z,16.70
2018-05-16T16:24:15.444Z,17.87
2018-05-16T16:26:42.949Z,18.30
2018-05-16T16:29:10.469Z,18.77
2018-05-16T16:31:37.964Z,19.40
2018-05-16T16:34:05.480Z,17.37
2018-05-16T16:36:32.984Z,17.97
2018-05-16T16:39:00.552Z,20.37
2018-05-16T16:41:28.785Z,20.03
2018-05-16T16:43:56.300Z,17.60
2018-05-16T16:46:23.805Z,18.80
2018-05-16T16:48:52.084Z,20.20
2018-05-16T16:51:20.356Z,20.77
2018-05-16T16:53:48.639Z,22.80
2018-05-16T16:56:16.908Z,21.63
2018-05-16T16:58:45.223Z,21.23
2018-05-16T17:01:12.733Z,18.80
2018-05-16T17:03:41.756Z,20.60
2018-05-16T17:06:10.025Z,19.80
2018-05-16T17:08:38.311Z,21.23
2018-05-16T17:11:05.821Z,19.00
2018-05-16T17:13:33.342Z,18.03
2018-05-16T17:16:00.844Z,20.07
2018-05-16T17:18:28.365Z,22.47
2018-05-16T17:20:55.873Z,20.93
2018-05-16T17:23:23.397Z,20.87
2018-05-16T17:25:50.906Z,23.57
2018-05-16T17:28:19.237Z,20.63
2018-05-16T17:30:46.740Z,23.40
2018-05-16T17:33:15.085Z,23.13
2018-05-16T17:35:45.030Z,21.87
2018-05-16T17:38:12.754Z,25.03
2018-05-16T17:40:40.266Z,21.23
2018-05-16T17:43:07.788Z,20.63
2018-05-16T17:45:35.288Z,20.00
2018-05-16T17:48:02.805Z,14.50
2018-05-16T17:50:30.305Z,7.90
2018-05-16T17:52:57.820Z,3.97
2018-05-16T17:55:25.311Z,6.90
2018-05-16T17:57:53.599Z,6.33
2018-05-16T18:00:21.096Z,10.03
2018-05-16T18:02:48.607Z,7.07
2018-05-16T18:05:16.121Z,6.53
2018-05-16T18:07:43.627Z,6.63
2018-05-16T18:10:11.139Z,7.10
2018-05-16T18:12:39.400Z,5.67
2018-05-16T18:15:18.895Z,6.70
2018-05-16T18:17:46.380Z,5.67
2018-05-16T18:20:13.881Z,7.90
2018-05-16T18:22:41.372Z,7.87
2018-05-16T18:25:08.888Z,17.77
2018-05-16T18:27:36.386Z,41.00
2018-05-16T18:30:03.905Z,26.83
2018-05-16T18:32:31.414Z,16.33
2018-05-16T18:34:58.934Z,6.90
2018-05-16T18:37:27.192Z,4.27
2018-05-16T18:39:54.806Z,4.77
2018-05-16T18:42:22.324Z,4.93
2018-05-16T18:44:50.516Z,5.63
2018-05-16T18:47:18.789Z,7.80
2018-05-16T18:49:47.060Z,8.93
2018-05-16T18:52:15.679Z,16.20
2018-05-16T18:54:43.195Z,11.03
2018-05-16T18:57:11.456Z,11.53
2018-05-16T18:59:38.966Z,10.10
2018-05-16T19:02:06.466Z,13.23
2018-05-16T19:04:33.972Z,9.70
2018-05-16T19:07:01.535Z,11.63
2018-05-16T19:09:29.060Z,10.13
2018-05-16T19:11:56.552Z,10.93
2018-05-16T19:14:24.104Z,9.90
2018-05-16T19:16:51.598Z,14.07
2018-05-16T19:19:19.120Z,14.00
2018-05-16T19:21:46.632Z,14.63
2018-05-16T19:24:14.126Z,14.57
2018-05-16T19:26:42.412Z,15.00
2018-05-16T19:29:09.977Z,18.63
2018-05-16T19:31:37.489Z,13.77
2018-05-16T19:34:04.984Z,17.53
2018-05-16T19:36:32.558Z,17.60
2018-05-16T19:39:00.072Z,19.43
2018-05-16T19:41:28.356Z,24.67
2018-05-16T19:43:56.628Z,20.73
2018-05-16T19:46:24.166Z,23.63
2018-05-16T19:48:51.660Z,21.60
2018-05-16T19:51:19.936Z,25.77
2018-05-16T19:53:48.235Z,23.60
2018-05-16T19:56:15.761Z,27.87
2018-05-16T19:58:44.028Z,28.67
2018-05-16T20:01:12.312Z,24.57
2018-05-16T20:03:40.572Z,32.43
2018-05-16T20:06:08.095Z,27.00
2018-05-16T20:08:35.601Z,28.10
2018-05-16T20:11:03.189Z,27.43
2018-05-16T20:13:30.744Z,29.53
2018-05-16T20:15:58.256Z,30.10
2018-05-16T20:18:25.777Z,32.50
2018-05-16T20:20:53.292Z,29.27
2018-05-16T20:23:21.557Z,28.33
2018-05-16T20:25:49.077Z,28.93
2018-05-16T20:28:16.580Z,32.93
2018-05-16T20:30:44.179Z,35.27
2018-05-16T20:33:11.685Z,32.10
2018-05-16T20:35:39.209Z,32.80
2018-05-16T20:38:06.707Z,33.37
2018-05-16T20:40:34.217Z,31.53
2018-05-16T20:43:01.715Z,31.40
2018-05-16T20:45:29.232Z,32.07
2018-05-16T20:47:56.737Z,32.80
2018-05-16T20:50:24.340Z,29.30
2018-05-16T20:52:51.848Z,29.87
2018-05-16T20:55:19.367Z,31.27
2018-05-16T20:57:46.921Z,34.03
2018-05-16T21:00:14.441Z,31.43
2018-05-16T21:02:41.948Z,35.23
2018-05-16T21:05:09.505Z,28.93
2018-05-16T21:07:37.735Z,31.30
2018-05-16T21:10:05.228Z,34.60
2018-05-16T21:12:32.797Z,30.83
2018-05-16T21:15:00.340Z,32.83
2018-05-16T21:17:27.857Z,34.60
2018-05-16T21:19:56.859Z,31.90
2018-05-16T21:22:24.374Z,34.20
2018-05-16T21:24:51.912Z,34.30
2018-05-16T21:27:19.433Z,27.43
2018-05-16T21:29:46.928Z,31.70
2018-05-16T21:32:14.445Z,33.27
2018-05-16T21:34:42.770Z,29.33
2018-05-16T21:37:10.282Z,28.93
2018-05-16T21:39:38.543Z,30.03
2018-05-16T21:42:06.052Z,32.70
2018-05-16T21:44:33.551Z,33.03
2018-05-16T21:47:01.073Z,28.53
2018-05-16T21:49:28.573Z,38.20
2018-05-16T21:51:56.096Z,29.47
2018-05-16T21:54:23.588Z,33.77
2018-05-16T21:56:51.105Z,26.97
2018-05-16T21:59:18.609Z,31.80
2018-05-16T22:01:46.268Z,26.80
2018-05-16T22:04:13.767Z,27.63
2018-05-16T22:06:42.048Z,27.90
2018-05-16T22:09:09.619Z,30.50
2018-05-16T22:11:37.179Z,31.23
2018-05-16T22:14:04.680Z,34.03
2018-05-16T22:16:32.188Z,31.20
2018-05-16T22:18:59.688Z,31.90
2018-05-16T22:21:27.201Z,30.93
2018-05-16T22:23:54.761Z,28.47
2018-05-16T22:26:22.325Z,28.83
2018-05-16T22:28:49.820Z,30.13
2018-05-16T22:31:22.920Z,29.23
2018-05-16T22:33:56.212Z,27.90
2018-05-16T22:36:29.553Z,30.73
2018-05-16T22:39:02.923Z,32.00
2018-05-16T22:41:36.232Z,31.37
2018-05-16T22:44:10.253Z,29.97
2018-05-16T22:46:37.771Z,30.70
2018-05-16T22:49:05.264Z,31.20
2018-05-16T22:51:33.548Z,30.43
2018-05-16T22:54:01.048Z,33.00
2018-05-16T22:56:28.563Z,30.87
2018-05-16T22:58:56.057Z,28.03
2018-05-16T23:01:23.585Z,29.40
2018-05-16T23:03:51.080Z,39.83
2018-05-16T23:06:18.594Z,30.17
2018-05-16T23:08:46.096Z,30.37
2018-05-16T23:11:13.612Z,28.60
2018-05-16T23:13:41.109Z,27.00
2018-05-16T23:16:08.690Z,31.77
2018-05-16T23:18:36.145Z,32.13
2018-05-16T23:21:03.647Z,28.70
2018-05-16T23:23:31.164Z,31.27
2018-05-16T23:25:58.656Z,34.07
2018-05-16T23:28:26.936Z,31.43
2018-05-16T23:30:54.496Z,29.47
2018-05-16T23:33:22.752Z,30.73
2018-05-16T23:35:51.013Z,29.00
2018-05-16T23:38:19.301Z,30.90
2018-05-16T23:40:47.572Z,36.03
2018-05-16T23:43:15.161Z,29.60
2018-05-16T23:45:42.760Z,29.00
2018-05-16T23:48:10.376Z,29.83
2018-05-16T23:50:37.872Z,30.03
2018-05-16T23:53:05.389Z,37.13
2018-05-16T23:55:32.892Z,30.03
2018-05-16T23:58:00.417Z,35.97
